Corlu, Turkey

9:07 AM EEST on August 31, 2016 (GMT +0300)
Corlu Air Base | | Change Station

Elev 568 ft 41.14 °N, 27.92 °E | Updated 17 minutes ago

Partly Cloudy
Partly Cloudy
77 °F
Feels Like 77 °F
N
16
Wind Variable Wind from North

Today
High -- | Low -- °F
--% Chance of Precip.
Yesterday
High -- | Low -- °F
Precip. -- in
Pressure 30.04 in
Visibility 6.2 miles
Clouds Few 3000 ft
Dew Point 66 °F
Humidity 69%
Rainfall 0.00 in
Snow Depth Not available.
6:34 AM 7:42 PM
Waning Crescent, 1% visible
METAR LTBU 310550Z 36014KT 9999 FEW030 25/19 Q1017 RMK RWY23 02014KT
Pressure 30.04 in
Visibility 6.2 miles
Clouds Few 3000 ft
Dew Point 66 °F
Humidity 69%
Rainfall 0.00 in
Snow Depth Not available.
6:34 AM 7:42 PM
Waning Crescent, 1% visible
METAR LTBU 310550Z 36014KT 9999 FEW030 25/19 Q1017 RMK RWY23 02014KT

10-Day Weather Forecast

×

Almanac

Astronomy

Aug. 31, 2016 Rise Set
Actual Time
Civil Twilight
Nautical Twilight
Astronomical Twilight
Moon
Length of Visible Light
Length of Day
Tomorrow will be .
, % of the Moon is Illuminated

Today's Extremes

Country Highs Country Lows

Community

WunderPhotos

Upload Photos

1,936,040 photos uploaded!

WunderBlog® & News

Nearby

Air Quality

  Air Quality AQ Index Pollutant
Not available.

Snow Depth

Station Depth Elevation

Earthquake Activity

City Distance Mag. Time & Date
Minimum magnitude displayed is 2.5.

Coastal Water Temperatures

Place Temperature

Stations

Nearby Weather Stations

Station Location Temp. Windchill Dew Point Humidity Wind Precip. Elev Updated Type